Time;durP1;ratioP1;P1;durP2;ratioP2;P2;SDS_P1;SDS_P2;PMS_P1;PMS_P2;Temp;Humidity;BMP_temperature;BMP_pressure;BME280_temperature;BME280_humidity;BME280_pressure;Samples;Min_cycle;Max_cycle;Signal;HPM_P1;HPM_P2
2023/10/09 00:01:12;;;;;;;3.70;3.40;;;;;;;;;;5053063;28;20238;-87
2023/10/09 00:03:41;;;;;;;5.23;3.47;;;;;;;;;;5053647;28;20297;-87
2023/10/09 00:06:10;;;;;;;4.07;3.27;;;;;;;;;;5052650;28;20264;-87
2023/10/09 00:08:38;;;;;;;4.47;3.70;;;;;;;;;;5052873;28;20245;-87
2023/10/09 00:11:16;;;;;;;4.53;4.13;;;;;;;;;;5052858;28;20229;-87
2023/10/09 00:13:50;;;;;;;6.90;4.20;;;;;;;;;;5053217;28;20729;-87
2023/10/09 00:16:22;;;;;;;4.93;3.80;;;;;;;;;;5052826;28;20261;-87
2023/10/09 00:18:50;;;;;;;5.47;4.33;;;;;;;;;;5052823;28;20234;-87
2023/10/09 00:21:20;;;;;;;6.97;4.33;;;;;;;;;;5052690;28;20596;-87
2023/10/09 00:23:52;;;;;;;5.60;3.97;;;;;;;;;;5053297;28;20222;-87
2023/10/09 00:26:21;;;;;;;5.63;4.23;;;;;;;;;;5052649;28;20360;-87
2023/10/09 00:28:50;;;;;;;3.90;3.57;;;;;;;;;;5052766;28;20226;-86
2023/10/09 00:31:30;;;;;;;4.67;4.00;;;;;;;;;;5052267;28;20264;-87
2023/10/09 00:34:03;;;;;;;6.87;4.13;;;;;;;;;;5053227;28;20190;-87
2023/10/09 00:36:32;;;;;;;6.80;3.90;;;;;;;;;;5052298;28;20234;-87
2023/10/09 00:39:10;;;;;;;5.40;3.60;;;;;;;;;;5052653;28;20194;-87
2023/10/09 00:41:41;;;;;;;6.67;4.20;;;;;;;;;;5035510;28;20257;-87
2023/10/09 00:44:08;;;;;;;6.23;4.03;;;;;;;;;;5052487;28;20309;-87
2023/10/09 00:46:37;;;;;;;5.33;4.00;;;;;;;;;;5051888;28;20237;-87
2023/10/09 00:49:10;;;;;;;5.33;4.40;;;;;;;;;;5052506;28;20289;-87
2023/10/09 00:51:38;;;;;;;5.27;4.10;;;;;;;;;;5051736;28;20253;-87
2023/10/09 00:54:13;;;;;;;5.57;4.37;;;;;;;;;;5052628;28;20206;-87
2023/10/09 00:56:43;;;;;;;4.67;4.00;;;;;;;;;;5051788;28;20601;-87
2023/10/09 00:59:14;;;;;;;7.33;4.33;;;;;;;;;;5043575;28;20213;-87
2023/10/09 01:01:45;;;;;;;10.73;4.67;;;;;;;;;;5040517;28;20320;-87
2023/10/09 01:04:15;;;;;;;8.50;4.50;;;;;;;;;;5037513;28;20762;-87
2023/10/09 01:06:44;;;;;;;5.27;4.53;;;;;;;;;;5049995;28;20238;-87
2023/10/09 01:09:14;;;;;;;8.50;4.97;;;;;;;;;;5043786;28;20578;-87
2023/10/09 01:11:51;;;;;;;7.30;5.03;;;;;;;;;;5040349;28;20232;-87
2023/10/09 01:14:21;;;;;;;5.43;4.50;;;;;;;;;;5052661;28;20259;-87
2023/10/09 01:16:48;;;;;;;7.00;4.57;;;;;;;;;;5051891;28;20234;-87
2023/10/09 01:19:23;;;;;;;8.87;4.90;;;;;;;;;;5052146;28;20202;-87
2023/10/09 01:21:51;;;;;;;5.90;4.33;;;;;;;;;;5051698;28;20229;-87
2023/10/09 01:24:20;;;;;;;8.77;5.20;;;;;;;;;;5052068;28;20218;-87
2023/10/09 01:26:49;;;;;;;9.07;4.80;;;;;;;;;;5051387;28;20229;-87
2023/10/09 01:29:18;;;;;;;9.13;4.70;;;;;;;;;;5051431;28;20891;-87
2023/10/09 01:31:52;;;;;;;8.37;5.07;;;;;;;;;;5051446;28;20249;-87
2023/10/09 01:34:23;;;;;;;6.53;5.17;;;;;;;;;;5052126;28;20190;-87
2023/10/09 01:36:53;;;;;;;7.47;5.00;;;;;;;;;;5051030;28;20321;-86
2023/10/09 01:39:23;;;;;;;6.73;4.60;;;;;;;;;;5051753;28;20205;-87
2023/10/09 01:41:57;;;;;;;5.83;4.50;;;;;;;;;;5050918;28;20742;-87
2023/10/09 01:44:25;;;;;;;6.07;4.83;;;;;;;;;;5051929;28;20216;-87
2023/10/09 01:46:54;;;;;;;8.37;4.77;;;;;;;;;;5050903;28;20253;-87
2023/10/09 01:49:29;;;;;;;7.07;4.37;;;;;;;;;;5051486;28;20240;-87
2023/10/09 01:51:58;;;;;;;5.07;4.00;;;;;;;;;;5051082;28;20291;-87
2023/10/09 01:54:36;;;;;;;8.83;4.97;;;;;;;;;;5051216;28;20206;-87
2023/10/09 01:57:12;;;;;;;8.43;5.03;;;;;;;;;;5050800;28;20264;-87
2023/10/09 01:59:43;;;;;;;8.97;4.80;;;;;;;;;;5051268;28;20190;-87
2023/10/09 02:02:21;;;;;;;8.23;4.97;;;;;;;;;;5051013;28;20229;-87
2023/10/09 02:04:53;;;;;;;15.43;5.50;;;;;;;;;;5051553;28;20214;-87
2023/10/09 02:07:26;;;;;;;10.73;5.43;;;;;;;;;;5050774;28;20242;-87
2023/10/09 02:09:55;;;;;;;8.73;4.50;;;;;;;;;;5051270;28;20260;-87
2023/10/09 02:12:23;;;;;;;7.77;4.67;;;;;;;;;;5054956;28;20601;-87
2023/10/09 02:14:53;;;;;;;8.47;4.67;;;;;;;;;;5055663;28;20197;-87
2023/10/09 02:17:24;;;;;;;7.47;4.97;;;;;;;;;;5055088;28;20244;-87
2023/10/09 02:19:52;;;;;;;6.00;4.70;;;;;;;;;;5055443;28;20271;-87
2023/10/09 02:22:19;;;;;;;6.57;4.60;;;;;;;;;;5054868;28;20253;-87
2023/10/09 02:24:58;;;;;;;8.17;4.93;;;;;;;;;;5055414;28;20585;-87
2023/10/09 02:30:19;;;;;;;7.37;4.93;;;;;;;;;;5054468;28;20201;-86
2023/10/09 02:32:53;;;;;;;5.13;4.33;;;;;;;;;;5055450;28;20221;-87
2023/10/09 02:35:38;;;;;;;7.47;4.80;;;;;;;;;;5039715;28;20281;-86
2023/10/09 02:38:07;;;;;;;9.57;5.30;;;;;;;;;;5054941;28;20240;-87
2023/10/09 02:40:41;;;;;;;8.70;5.00;;;;;;;;;;5054520;28;20234;-87
2023/10/09 02:43:17;;;;;;;6.90;4.83;;;;;;;;;;5055221;28;20232;-87
2023/10/09 02:45:50;;;;;;;7.63;4.80;;;;;;;;;;5054283;28;20226;-87
2023/10/09 02:48:19;;;;;;;9.77;5.43;;;;;;;;;;5054774;28;20725;-86
2023/10/09 02:50:46;;;;;;;11.40;5.03;;;;;;;;;;5054299;28;20252;-87
2023/10/09 02:53:18;;;;;;;5.70;5.10;;;;;;;;;;5055191;28;20210;-87
2023/10/09 02:56:02;;;;;;;8.77;4.77;;;;;;;;;;5054425;28;20238;-87
2023/10/09 02:58:32;;;;;;;7.90;5.10;;;;;;;;;;5054745;28;20253;-87
2023/10/09 03:00:59;;;;;;;11.07;4.87;;;;;;;;;;5054023;28;20280;-87
2023/10/09 03:03:28;;;;;;;6.70;5.40;;;;;;;;;;5054584;28;20258;-87
2023/10/09 03:05:55;;;;;;;7.60;5.10;;;;;;;;;;5034136;28;20238;-87
2023/10/09 03:08:22;;;;;;;11.23;5.00;;;;;;;;;;5050479;28;20224;-87
2023/10/09 03:10:49;;;;;;;5.67;4.33;;;;;;;;;;5053837;28;20579;-87
2023/10/09 03:13:19;;;;;;;8.33;4.90;;;;;;;;;;5054220;28;20690;-87
2023/10/09 03:15:48;;;;;;;10.30;5.03;;;;;;;;;;5053941;28;20280;-87
2023/10/09 03:18:15;;;;;;;7.67;4.50;;;;;;;;;;5054275;28;20252;-87
2023/10/09 03:20:44;;;;;;;5.07;4.13;;;;;;;;;;5053669;28;20597;-87
2023/10/09 03:23:14;;;;;;;5.57;4.23;;;;;;;;;;5055608;28;20206;-87
2023/10/09 03:25:45;;;;;;;7.10;4.53;;;;;;;;;;5056253;28;20230;-87
2023/10/09 03:28:12;;;;;;;8.53;4.57;;;;;;;;;;5058431;28;20220;-87
2023/10/09 03:30:40;;;;;;;8.03;4.33;;;;;;;;;;5053846;28;20236;-86
2023/10/09 03:33:08;;;;;;;7.10;4.70;;;;;;;;;;5054377;28;20205;-87
2023/10/09 03:35:36;;;;;;;6.17;4.17;;;;;;;;;;5053543;28;20241;-87
2023/10/09 03:38:11;;;;;;;6.40;4.40;;;;;;;;;;5052387;28;20237;-87
2023/10/09 03:40:42;;;;;;;4.90;4.00;;;;;;;;;;5052701;28;20259;-86
2023/10/09 03:43:10;;;;;;;9.47;4.93;;;;;;;;;;5054149;28;20237;-87
2023/10/09 03:45:39;;;;;;;6.90;4.77;;;;;;;;;;5053508;28;20236;-87
2023/10/09 03:48:15;;;;;;;7.93;4.30;;;;;;;;;;5053992;28;20275;-87
2023/10/09 03:50:45;;;;;;;8.03;4.77;;;;;;;;;;5053526;28;20285;-87
2023/10/09 03:53:12;;;;;;;8.57;5.00;;;;;;;;;;5053186;28;20281;-87
2023/10/09 03:55:40;;;;;;;5.97;4.43;;;;;;;;;;5052001;28;20728;-87
2023/10/09 03:58:07;;;;;;;6.93;4.60;;;;;;;;;;5053951;28;20571;-87
2023/10/09 04:00:44;;;;;;;9.33;5.47;;;;;;;;;;5055086;28;20606;-87
2023/10/09 04:03:14;;;;;;;4.73;4.13;;;;;;;;;;5053482;28;20568;-87
2023/10/09 04:05:42;;;;;;;7.90;4.43;;;;;;;;;;5053467;28;20275;-87
2023/10/09 04:08:16;;;;;;;8.73;4.23;;;;;;;;;;5033712;28;20258;-87
2023/10/09 04:10:52;;;;;;;11.07;4.83;;;;;;;;;;5033132;28;20313;-87
2023/10/09 04:13:22;;;;;;;5.20;4.40;;;;;;;;;;5038298;28;20292;-87
2023/10/09 04:15:52;;;;;;;6.90;5.00;;;;;;;;;;5053357;28;20228;-87
2023/10/09 04:18:32;;;;;;;6.20;4.97;;;;;;;;;;5034241;28;20223;-87
2023/10/09 04:26:34;;;;;;;5.70;4.30;;;;;;;;;;5052931;28;20751;-86
2023/10/09 04:29:02;;;;;;;8.33;4.73;;;;;;;;;;5053225;28;20233;-86
2023/10/09 04:31:31;;;;;;;7.53;4.87;;;;;;;;;;5055469;28;20255;-86
2023/10/09 04:36:47;;;;;;;8.20;4.67;;;;;;;;;;5052006;28;20224;-90
2023/10/09 04:39:34;;;;;;;5.80;4.43;;;;;;;;;;5052656;28;20190;-86
2023/10/09 04:42:26;;;;;;;6.30;4.90;;;;;;;;;;5046950;28;20325;-86
2023/10/09 04:45:18;;;;;;;7.17;4.30;;;;;;;;;;5052023;28;20727;-85
2023/10/09 04:47:57;;;;;;;8.73;3.93;;;;;;;;;;5032737;28;20235;-85
2023/10/09 04:53:23;;;;;;;5.37;3.73;;;;;;;;;;5042723;28;20206;-85
2023/10/09 04:56:04;;;;;;;6.50;4.03;;;;;;;;;;5052007;28;20312;-85
2023/10/09 04:58:39;;;;;;;8.33;4.40;;;;;;;;;;5052553;28;20222;-84
2023/10/09 05:01:13;;;;;;;15.97;4.43;;;;;;;;;;5053292;28;20241;-86
2023/10/09 05:03:43;;;;;;;4.40;3.37;;;;;;;;;;5053413;28;20217;-85
2023/10/09 05:06:21;;;;;;;4.23;3.70;;;;;;;;;;5051726;28;20279;-86
2023/10/09 05:08:48;;;;;;;7.00;4.57;;;;;;;;;;5054417;28;20214;-85
2023/10/09 05:11:34;;;;;;;7.80;4.23;;;;;;;;;;5051048;28;20291;-88
2023/10/09 05:14:11;;;;;;;6.57;4.30;;;;;;;;;;5051788;28;20692;-87
2023/10/09 05:16:53;;;;;;;6.43;4.20;;;;;;;;;;5051639;28;20594;-85
2023/10/09 05:19:33;;;;;;;4.67;4.07;;;;;;;;;;5052167;28;20252;-86
2023/10/09 05:22:04;;;;;;;5.57;4.10;;;;;;;;;;5052658;28;20621;-86
2023/10/09 05:24:43;;;;;;;6.23;3.80;;;;;;;;;;5053203;28;20214;-86
2023/10/09 05:27:45;;;;;;;4.97;3.63;;;;;;;;;;5052467;28;20237;-86
2023/10/09 05:30:24;;;;;;;7.03;4.87;;;;;;;;;;5044937;28;20209;-86
2023/10/09 05:32:55;;;;;;;11.33;5.63;;;;;;;;;;5052541;28;20197;-87
2023/10/09 05:35:29;;;;;;;7.50;4.87;;;;;;;;;;5038869;28;20630;-86
2023/10/09 05:38:03;;;;;;;8.20;4.17;;;;;;;;;;5051652;28;20233;-86
2023/10/09 05:40:31;;;;;;;12.67;4.23;;;;;;;;;;5051451;28;20244;-86
2023/10/09 05:42:59;;;;;;;6.90;4.70;;;;;;;;;;5051383;28;20202;-86
2023/10/09 06:04:54;;;;;;;7.93;4.20;;;;;;;;;;5050911;28;20233;-86
2023/10/09 06:07:24;;;;;;;8.13;3.83;;;;;;;;;;5056631;28;20627;-86
2023/10/09 06:09:52;;;;;;;7.07;4.50;;;;;;;;;;5048533;28;20213;-86
2023/10/09 06:18:22;;;;;;;8.93;4.27;;;;;;;;;;5025111;28;20241;-86
2023/10/09 06:21:06;;;;;;;4.77;4.23;;;;;;;;;;5049161;28;20225;-86
2023/10/09 06:26:25;;;;;;;11.47;3.67;;;;;;;;;;5048347;28;20286;-86
2023/10/09 06:29:13;;;;;;;8.83;4.50;;;;;;;;;;5059679;28;20373;-86
2023/10/09 06:34:32;;;;;;;7.27;4.80;;;;;;;;;;5030532;28;20203;-87
2023/10/09 06:37:03;;;;;;;8.63;4.57;;;;;;;;;;5069053;28;20247;-86
2023/10/09 06:45:09;;;;;;;14.60;5.17;;;;;;;;;;5063166;28;20231;-86
2023/10/09 06:47:41;;;;;;;16.47;4.60;;;;;;;;;;5070053;28;20257;-86
2023/10/09 06:50:25;;;;;;;8.50;4.20;;;;;;;;;;5065675;28;20198;-85
2023/10/09 06:52:58;;;;;;;14.33;4.83;;;;;;;;;;5052042;28;20206;-86
2023/10/09 06:55:34;;;;;;;6.70;4.23;;;;;;;;;;5061515;28;20232;-86
2023/10/09 06:58:01;;;;;;;7.70;4.23;;;;;;;;;;5062278;28;20232;-86
2023/10/09 07:03:19;;;;;;;4.50;4.10;;;;;;;;;;5074284;28;20296;-85
2023/10/09 07:06:00;;;;;;;10.93;4.33;;;;;;;;;;5064262;28;20720;-86
2023/10/09 07:08:31;;;;;;;5.40;4.33;;;;;;;;;;5062204;28;20277;-85
2023/10/09 07:11:20;;;;;;;7.00;4.83;;;;;;;;;;5064386;28;20236;-86
2023/10/09 07:13:53;;;;;;;6.40;4.17;;;;;;;;;;5056688;28;20202;-86
2023/10/09 07:16:23;;;;;;;7.50;4.57;;;;;;;;;;5053707;28;20283;-86
2023/10/09 07:18:54;;;;;;;7.40;4.90;;;;;;;;;;5069591;28;20221;-86
2023/10/09 07:21:27;;;;;;;9.07;4.60;;;;;;;;;;5061756;28;20237;-86
2023/10/09 07:23:57;;;;;;;8.83;4.43;;;;;;;;;;5061841;28;20663;-86
2023/10/09 07:26:36;;;;;;;7.13;4.53;;;;;;;;;;5061518;28;20312;-86
2023/10/09 07:29:16;;;;;;;11.03;4.77;;;;;;;;;;5055951;28;20201;-86
2023/10/09 07:31:45;;;;;;;10.87;4.33;;;;;;;;;;5056407;28;20257;-86
2023/10/09 07:34:43;;;;;;;7.37;4.50;;;;;;;;;;5069658;28;20298;-86
2023/10/09 07:37:10;;;;;;;5.00;3.50;;;;;;;;;;5057503;28;20695;-85
2023/10/09 07:39:37;;;;;;;8.23;4.30;;;;;;;;;;5073207;28;20239;-86
2023/10/09 07:44:55;;;;;;;9.40;4.60;;;;;;;;;;5062451;28;20741;-86
2023/10/09 07:47:45;;;;;;;9.27;4.47;;;;;;;;;;5061899;28;20320;-86
2023/10/09 07:50:21;;;;;;;8.57;4.43;;;;;;;;;;5052924;28;20206;-85
2023/10/09 07:52:49;;;;;;;7.57;4.77;;;;;;;;;;5062080;28;20201;-86
2023/10/09 07:55:26;;;;;;;7.53;5.20;;;;;;;;;;5067857;28;20210;-86
2023/10/09 07:57:53;;;;;;;10.10;5.17;;;;;;;;;;5070727;28;20229;-87
2023/10/09 08:01:05;;;;;;;12.77;5.10;;;;;;;;;;5067075;28;20206;-86
2023/10/09 08:03:32;;;;;;;11.93;5.87;;;;;;;;;;5046826;28;20248;-86
2023/10/09 08:06:06;;;;;;;9.10;5.27;;;;;;;;;;5054358;28;20594;-86
2023/10/09 08:09:17;;;;;;;10.13;5.87;;;;;;;;;;5064091;28;20793;-86
2023/10/09 08:11:59;;;;;;;9.60;5.40;;;;;;;;;;5058257;28;20251;-86
2023/10/09 08:14:48;;;;;;;7.37;5.57;;;;;;;;;;5047202;28;20259;-86
2023/10/09 08:17:15;;;;;;;8.87;5.90;;;;;;;;;;5060352;28;20230;-86
2023/10/09 08:19:57;;;;;;;8.93;6.13;;;;;;;;;;5060332;28;20210;-86
2023/10/09 08:22:42;;;;;;;8.57;6.37;;;;;;;;;;5059873;28;20229;-86
2023/10/09 08:25:25;;;;;;;14.33;6.87;;;;;;;;;;5063555;28;20260;-86
2023/10/09 08:27:55;;;;;;;11.87;7.07;;;;;;;;;;5063907;28;20229;-86
2023/10/09 08:33:05;;;;;;;7.13;5.60;;;;;;;;;;5053586;28;20285;-86
2023/10/09 08:35:33;;;;;;;15.87;5.67;;;;;;;;;;5066014;28;20585;-86
2023/10/09 08:38:07;;;;;;;9.90;5.40;;;;;;;;;;5060200;28;20226;-86
2023/10/09 08:40:37;;;;;;;5.83;4.70;;;;;;;;;;5066836;28;20593;-86
2023/10/09 08:43:08;;;;;;;7.53;4.53;;;;;;;;;;5072148;28;20292;-86
2023/10/09 08:45:39;;;;;;;9.83;3.93;;;;;;;;;;5063524;28;20252;-86
2023/10/09 08:48:06;;;;;;;5.60;4.27;;;;;;;;;;5059487;28;20611;-86
2023/10/09 08:50:34;;;;;;;5.50;3.73;;;;;;;;;;5056859;28;20312;-86
2023/10/09 08:53:03;;;;;;;5.70;3.43;;;;;;;;;;5062202;28;20213;-86
2023/10/09 08:55:30;;;;;;;6.97;3.70;;;;;;;;;;5071588;28;20228;-86
2023/10/09 08:57:58;;;;;;;6.23;3.37;;;;;;;;;;5061784;28;20229;-89
2023/10/09 09:00:25;;;;;;;5.20;2.87;;;;;;;;;;5055207;28;20225;-88
2023/10/09 09:02:54;;;;;;;6.20;3.13;;;;;;;;;;5061011;28;20205;-88
2023/10/09 09:05:21;;;;;;;7.20;3.60;;;;;;;;;;5063417;28;20594;-87
2023/10/09 09:07:48;;;;;;;13.10;3.57;;;;;;;;;;5055444;28;20234;-88
2023/10/09 09:10:21;;;;;;;8.17;3.60;;;;;;;;;;5062735;28;20201;-88
2023/10/09 09:12:53;;;;;;;9.60;3.70;;;;;;;;;;5064218;28;20205;-88
2023/10/09 09:15:21;;;;;;;5.90;3.40;;;;;;;;;;5067383;28;20207;-88
2023/10/09 09:17:50;;;;;;;10.20;3.33;;;;;;;;;;5059897;28;20253;-88
2023/10/09 09:20:26;;;;;;;5.70;3.33;;;;;;;;;;5069644;28;20209;-89
2023/10/09 09:22:56;;;;;;;6.60;3.13;;;;;;;;;;5063254;28;20210;-86
2023/10/09 09:25:25;;;;;;;5.13;3.10;;;;;;;;;;5062648;28;20244;-86
2023/10/09 09:27:54;;;;;;;7.03;3.43;;;;;;;;;;5070832;28;20229;-86
2023/10/09 09:30:25;;;;;;;11.10;3.20;;;;;;;;;;5050745;28;20209;-86
2023/10/09 09:33:15;;;;;;;7.53;3.30;;;;;;;;;;5051586;28;20209;-86
2023/10/09 09:35:42;;;;;;;9.03;3.53;;;;;;;;;;5055667;28;20253;-86
2023/10/09 09:38:17;;;;;;;5.63;3.03;;;;;;;;;;5070339;28;20304;-86
2023/10/09 09:40:46;;;;;;;6.83;3.43;;;;;;;;;;5070671;28;20224;-86
2023/10/09 09:43:21;;;;;;;4.30;2.80;;;;;;;;;;5071046;28;20205;-86
2023/10/09 09:45:50;;;;;;;9.13;3.50;;;;;;;;;;5070609;28;20394;-87
2023/10/09 09:48:18;;;;;;;5.67;3.13;;;;;;;;;;5066488;28;20229;-88
2023/10/09 09:50:46;;;;;;;5.93;3.00;;;;;;;;;;5054539;28;20291;-86
2023/10/09 09:53:16;;;;;;;9.57;2.77;;;;;;;;;;5054622;28;20575;-86
2023/10/09 09:55:51;;;;;;;5.43;3.00;;;;;;;;;;5062417;28;20228;-86
2023/10/09 09:58:20;;;;;;;3.80;2.83;;;;;;;;;;5070674;28;20229;-86
2023/10/09 10:00:52;;;;;;;8.50;3.53;;;;;;;;;;5054196;28;20236;-87
2023/10/09 10:03:21;;;;;;;11.70;4.57;;;;;;;;;;5063264;28;20209;-86
2023/10/09 10:05:49;;;;;;;7.00;3.50;;;;;;;;;;5062066;28;20232;-86
2023/10/09 10:08:19;;;;;;;7.40;4.37;;;;;;;;;;5070618;28;20225;-86
2023/10/09 10:10:52;;;;;;;6.60;4.00;;;;;;;;;;5053602;28;20240;-86
2023/10/09 10:13:39;;;;;;;5.27;3.20;;;;;;;;;;5050713;28;20237;-86
2023/10/09 10:16:20;;;;;;;6.03;3.10;;;;;;;;;;5050149;28;20226;-86
2023/10/09 10:21:49;;;;;;;9.13;2.93;;;;;;;;;;5034597;28;20226;-83
2023/10/09 10:24:51;;;;;;;7.33;2.77;;;;;;;;;;5050137;28;20241;-82
2023/10/09 10:27:26;;;;;;;8.03;3.10;;;;;;;;;;5049611;28;20237;-81
2023/10/09 10:30:10;;;;;;;7.03;3.00;;;;;;;;;;5058034;28;20205;-81
2023/10/09 10:32:52;;;;;;;5.80;2.93;;;;;;;;;;5061351;28;20229;-81
2023/10/09 10:35:32;;;;;;;6.90;3.30;;;;;;;;;;5073324;28;20236;-81
2023/10/09 10:38:11;;;;;;;7.67;3.43;;;;;;;;;;5065449;28;20229;-81
2023/10/09 10:40:45;;;;;;;9.77;3.72;;;;;;;;;;5073333;28;20237;-81
2023/10/09 10:43:31;;;;;;;7.40;3.13;;;;;;;;;;5054771;28;20221;-81
2023/10/09 10:46:04;;;;;;;6.90;3.47;;;;;;;;;;5053339;28;20257;-81
2023/10/09 10:48:38;;;;;;;11.30;3.90;;;;;;;;;;5053856;28;20222;-81
2023/10/09 10:51:11;;;;;;;8.50;3.58;;;;;;;;;;5061664;28;20233;-81
2023/10/09 10:53:47;;;;;;;9.30;3.43;;;;;;;;;;5059975;28;20210;-80
2023/10/09 10:56:18;;;;;;;6.72;2.97;;;;;;;;;;5058360;28;20303;-81
2023/10/09 10:59:11;;;;;;;4.40;2.63;;;;;;;;;;5061534;28;20214;-81
2023/10/09 11:01:53;;;;;;;6.75;3.40;;;;;;;;;;5053333;28;20433;-81
2023/10/09 11:04:38;;;;;;;7.45;2.97;;;;;;;;;;5057844;28;20200;-81
2023/10/09 11:07:12;;;;;;;7.97;3.38;;;;;;;;;;5056634;28;20586;-81
2023/10/09 11:09:59;;;;;;;5.88;2.80;;;;;;;;;;5065360;28;20198;-81
2023/10/09 11:12:37;;;;;;;4.93;3.08;;;;;;;;;;5054371;28;20294;-81
2023/10/09 11:15:08;;;;;;;6.57;2.92;;;;;;;;;;5071068;28;20248;-81
2023/10/09 11:17:38;;;;;;;5.07;2.80;;;;;;;;;;5060342;28;20222;-81
2023/10/09 11:20:22;;;;;;;7.50;3.47;;;;;;;;;;5054756;28;20241;-81
2023/10/09 11:23:14;;;;;;;8.93;3.22;;;;;;;;;;5067821;28;20209;-81
2023/10/09 11:25:49;;;;;;;4.43;2.60;;;;;;;;;;5063533;28;20315;-81
2023/10/09 11:28:29;;;;;;;6.28;2.80;;;;;;;;;;5055084;28;20226;-79
2023/10/09 11:30:56;;;;;;;4.68;2.63;;;;;;;;;;5070501;28;20217;-81
2023/10/09 11:33:28;;;;;;;7.55;3.13;;;;;;;;;;5066360;28;20206;-81
2023/10/09 11:36:00;;;;;;;6.30;2.58;;;;;;;;;;5073301;28;20229;-81
2023/10/09 11:38:37;;;;;;;6.63;2.90;;;;;;;;;;5053818;28;20644;-81
2023/10/09 11:41:18;;;;;;;6.30;2.67;;;;;;;;;;5064214;28;20607;-83
2023/10/09 11:43:51;;;;;;;7.35;3.10;;;;;;;;;;5070507;28;20190;-81
2023/10/09 11:52:34;;;;;;;5.25;2.50;;;;;;;;;;5070237;28;20271;-84
2023/10/09 11:55:03;;;;;;;5.15;3.17;;;;;;;;;;5060303;28;20210;-82
2023/10/09 11:57:30;;;;;;;5.57;2.47;;;;;;;;;;5071289;28;20213;-83
2023/10/09 11:59:58;;;;;;;6.15;3.10;;;;;;;;;;5069969;28;20551;-82
2023/10/09 12:02:25;;;;;;;6.07;2.78;;;;;;;;;;5060226;28;20228;-81
2023/10/09 12:04:55;;;;;;;6.55;2.47;;;;;;;;;;5074828;28;20209;-81
2023/10/09 12:07:22;;;;;;;6.47;2.60;;;;;;;;;;5070939;28;20284;-82
2023/10/09 12:09:51;;;;;;;4.72;2.67;;;;;;;;;;5073078;28;20236;-82
2023/10/09 12:12:25;;;;;;;5.57;2.85;;;;;;;;;;5090531;28;20233;-81
2023/10/09 12:14:54;;;;;;;6.18;2.92;;;;;;;;;;5096097;28;20207;-80
2023/10/09 12:17:24;;;;;;;5.30;2.90;;;;;;;;;;5094796;28;20229;-81
2023/10/09 12:19:52;;;;;;;5.45;2.92;;;;;;;;;;5095952;28;20178;-80
2023/10/09 12:22:21;;;;;;;4.78;2.40;;;;;;;;;;5096176;28;20267;-81
2023/10/09 12:24:48;;;;;;;6.80;2.92;;;;;;;;;;5095623;28;20186;-82
2023/10/09 12:27:20;;;;;;;6.00;3.13;;;;;;;;;;5095870;28;20227;-82
2023/10/09 12:29:48;;;;;;;7.32;2.78;;;;;;;;;;5096246;28;20197;-83
2023/10/09 12:32:19;;;;;;;6.97;3.08;;;;;;;;;;5076936;28;20222;-82
2023/10/09 12:34:50;;;;;;;4.88;3.00;;;;;;;;;;5076797;28;20257;-83
2023/10/09 12:37:20;;;;;;;3.67;2.60;;;;;;;;;;5055734;28;20638;-83
2023/10/09 12:39:47;;;;;;;4.32;2.75;;;;;;;;;;5053614;28;20198;-83
2023/10/09 12:42:16;;;;;;;3.88;2.95;;;;;;;;;;5052973;28;20238;-84
2023/10/09 12:44:44;;;;;;;5.32;2.90;;;;;;;;;;5054109;28;20198;-84
2023/10/09 12:47:12;;;;;;;5.97;3.50;;;;;;;;;;5052635;28;20237;-85
2023/10/09 12:49:41;;;;;;;6.10;2.60;;;;;;;;;;5053750;28;20209;-85
2023/10/09 12:52:15;;;;;;;4.55;2.67;;;;;;;;;;5051820;28;20657;-85
2023/10/09 12:54:42;;;;;;;6.22;2.97;;;;;;;;;;5054969;28;20206;-84
2023/10/09 12:57:13;;;;;;;6.47;2.92;;;;;;;;;;5051655;28;20229;-86
2023/10/09 12:59:44;;;;;;;5.82;3.08;;;;;;;;;;5052515;28;20571;-86
2023/10/09 13:02:12;;;;;;;6.50;3.00;;;;;;;;;;5051542;28;20238;-85
2023/10/09 13:04:42;;;;;;;5.63;3.15;;;;;;;;;;5052501;28;20206;-86
2023/10/09 13:07:12;;;;;;;4.50;2.67;;;;;;;;;;5051514;28;20226;-86
2023/10/09 13:09:43;;;;;;;5.85;2.75;;;;;;;;;;5053124;28;20304;-88
2023/10/09 13:12:17;;;;;;;6.85;2.72;;;;;;;;;;5051536;28;20276;-87
2023/10/09 13:14:45;;;;;;;8.60;4.28;;;;;;;;;;5054787;28;20235;-80
2023/10/09 13:17:13;;;;;;;5.05;3.28;;;;;;;;;;5069463;28;20283;-81
2023/10/09 13:19:40;;;;;;;5.93;3.05;;;;;;;;;;5054906;28;20245;-76
2023/10/09 13:22:12;;;;;;;5.60;2.78;;;;;;;;;;5051210;28;20276;-77
2023/10/09 13:24:41;;;;;;;4.20;3.00;;;;;;;;;;5065085;28;20782;-76
2023/10/09 13:27:10;;;;;;;9.88;3.10;;;;;;;;;;5070986;28;20605;-77
2023/10/09 13:29:39;;;;;;;9.30;3.55;;;;;;;;;;5064433;28;20202;-84
2023/10/09 13:32:13;;;;;;;6.32;3.10;;;;;;;;;;5060010;28;20252;-84
2023/10/09 13:34:44;;;;;;;6.80;2.92;;;;;;;;;;5073286;28;20675;-84
2023/10/09 13:37:13;;;;;;;6.47;2.70;;;;;;;;;;5071209;28;20270;-84
2023/10/09 13:39:52;;;;;;;6.10;2.80;;;;;;;;;;5065088;28;20600;-84
2023/10/09 13:42:19;;;;;;;7.35;2.80;;;;;;;;;;5053318;28;20235;-84
2023/10/09 13:44:48;;;;;;;8.68;3.25;;;;;;;;;;5051768;28;20201;-84
2023/10/09 13:47:20;;;;;;;6.18;2.67;;;;;;;;;;5050771;28;20820;-84
2023/10/09 13:49:50;;;;;;;5.72;2.80;;;;;;;;;;5051329;28;20212;-85
2023/10/09 13:52:18;;;;;;;6.00;2.80;;;;;;;;;;5050830;28;20313;-85
2023/10/09 13:54:49;;;;;;;6.82;3.47;;;;;;;;;;5051369;28;20818;-86
2023/10/09 13:57:16;;;;;;;28.73;20.73;;;;;;;;;;5050683;28;20238;-85
2023/10/09 13:59:49;;;;;;;9.35;3.50;;;;;;;;;;5051187;28;20217;-83
2023/10/09 14:02:18;;;;;;;7.63;2.90;;;;;;;;;;5050659;28;20258;-84
2023/10/09 14:04:46;;;;;;;6.13;2.97;;;;;;;;;;5051668;28;20201;-85
2023/10/09 14:07:16;;;;;;;11.57;3.15;;;;;;;;;;5061141;28;20639;-85
2023/10/09 14:09:54;;;;;;;9.63;3.15;;;;;;;;;;5055434;28;20575;-84
2023/10/09 14:12:24;;;;;;;5.55;2.63;;;;;;;;;;5054830;28;20327;-84
2023/10/09 14:14:53;;;;;;;5.72;3.40;;;;;;;;;;5055468;28;20210;-83
2023/10/09 14:17:25;;;;;;;5.28;2.72;;;;;;;;;;5054149;28;20742;-83
2023/10/09 14:19:51;;;;;;;6.45;3.55;;;;;;;;;;5055084;28;20228;-82
2023/10/09 14:22:19;;;;;;;8.93;3.15;;;;;;;;;;5056596;28;20304;-84
2023/10/09 14:24:46;;;;;;;10.63;5.03;;;;;;;;;;5065330;28;20205;-85
2023/10/09 14:27:17;;;;;;;7.63;2.88;;;;;;;;;;5054171;28;20225;-82
2023/10/09 14:29:46;;;;;;;5.78;3.03;;;;;;;;;;5054498;28;20799;-82
2023/10/09 14:32:13;;;;;;;5.18;2.60;;;;;;;;;;5056791;28;20241;-82
2023/10/09 14:34:46;;;;;;;5.28;3.60;;;;;;;;;;5055187;28;20221;-82
2023/10/09 14:37:14;;;;;;;5.22;2.83;;;;;;;;;;5063538;28;20312;-82
2023/10/09 14:39:42;;;;;;;6.75;3.08;;;;;;;;;;5061629;28;20650;-82
2023/10/09 14:42:10;;;;;;;4.75;2.67;;;;;;;;;;5071280;28;20730;-82
2023/10/09 14:44:38;;;;;;;7.38;3.42;;;;;;;;;;5074312;28;20541;-82
2023/10/09 14:47:06;;;;;;;7.25;3.13;;;;;;;;;;5065912;28;20226;-82
2023/10/09 14:49:37;;;;;;;10.40;3.13;;;;;;;;;;5046314;28;20578;-82
2023/10/09 14:52:06;;;;;;;5.20;2.75;;;;;;;;;;5054261;28;20226;-82
2023/10/09 14:54:33;;;;;;;7.25;3.17;;;;;;;;;;5054555;28;20232;-82
2023/10/09 14:57:00;;;;;;;6.22;3.38;;;;;;;;;;5054062;28;20256;-82
2023/10/09 14:59:27;;;;;;;6.72;3.30;;;;;;;;;;5055598;28;20707;-82
2023/10/09 15:01:54;;;;;;;5.47;3.03;;;;;;;;;;5062367;28;20232;-82
2023/10/09 15:04:25;;;;;;;6.78;2.75;;;;;;;;;;5075217;28;20564;-81
2023/10/09 15:06:52;;;;;;;5.13;2.75;;;;;;;;;;5074391;28;20225;-82
2023/10/09 15:09:22;;;;;;;5.90;3.30;;;;;;;;;;5074249;28;20228;-81
2023/10/09 15:11:50;;;;;;;6.45;3.03;;;;;;;;;;5074262;28;20707;-82
2023/10/09 15:14:18;;;;;;;4.63;2.78;;;;;;;;;;5074482;28;20625;-81
2023/10/09 15:16:46;;;;;;;5.85;3.03;;;;;;;;;;5074573;28;20283;-81
2023/10/09 15:19:13;;;;;;;7.10;3.03;;;;;;;;;;5073979;28;20790;-82
2023/10/09 15:21:44;;;;;;;8.00;3.05;;;;;;;;;;5069520;28;20710;-82
2023/10/09 15:24:15;;;;;;;9.73;3.13;;;;;;;;;;5054453;28;20256;-81
2023/10/09 15:26:42;;;;;;;8.25;3.33;;;;;;;;;;5053383;28;20234;-82
2023/10/09 15:29:09;;;;;;;5.47;2.75;;;;;;;;;;5053798;28;20229;-82
2023/10/09 15:31:36;;;;;;;9.70;2.92;;;;;;;;;;5065277;28;20307;-82
2023/10/09 15:34:08;;;;;;;7.97;4.38;;;;;;;;;;5073833;28;20292;-81
2023/10/09 15:36:35;;;;;;;6.57;3.63;;;;;;;;;;5073091;28;20680;-82
2023/10/09 15:39:07;;;;;;;6.90;2.72;;;;;;;;;;5073684;28;20573;-82
2023/10/09 15:41:34;;;;;;;7.28;2.85;;;;;;;;;;5073031;28;20225;-82
2023/10/09 15:44:02;;;;;;;5.95;3.33;;;;;;;;;;5073671;28;20202;-82
2023/10/09 15:46:33;;;;;;;5.70;3.05;;;;;;;;;;5073559;28;20229;-82
2023/10/09 15:49:00;;;;;;;5.63;2.85;;;;;;;;;;5074241;28;20205;-82
2023/10/09 15:51:27;;;;;;;6.60;3.58;;;;;;;;;;5072984;28;20600;-81
2023/10/09 15:53:56;;;;;;;6.95;3.60;;;;;;;;;;5073552;28;20580;-81
2023/10/09 15:56:26;;;;;;;7.93;2.90;;;;;;;;;;5054531;28;20241;-81
2023/10/09 15:58:56;;;;;;;7.60;3.67;;;;;;;;;;5053140;28;20724;-82
2023/10/09 16:01:23;;;;;;;7.57;3.28;;;;;;;;;;5052793;28;20229;-82
2023/10/09 16:03:50;;;;;;;9.07;3.30;;;;;;;;;;5058329;28;20228;-81
2023/10/09 16:06:18;;;;;;;8.07;3.33;;;;;;;;;;5056003;28;20230;-83
2023/10/09 16:08:46;;;;;;;10.07;3.88;;;;;;;;;;5056739;28;20233;-82
2023/10/09 16:11:14;;;;;;;11.73;3.25;;;;;;;;;;5061563;28;20358;-82
2023/10/09 16:13:43;;;;;;;10.05;4.43;;;;;;;;;;5073780;28;20197;-81
2023/10/09 16:16:13;;;;;;;6.10;3.65;;;;;;;;;;5072614;28;20236;-82
2023/10/09 16:18:40;;;;;;;8.55;3.90;;;;;;;;;;5045145;28;20225;-82